createdAt,value
2019-02-25T00:00:11.355Z,53.80
2019-02-25T00:02:39.195Z,53.60
2019-02-25T00:05:07.311Z,53.70
2019-02-25T00:07:34.649Z,53.90
2019-02-25T00:10:02.291Z,53.90
2019-02-25T00:12:30.196Z,54.10
2019-02-25T00:14:59.004Z,54.40
2019-02-25T00:17:26.688Z,54.80
2019-02-25T00:19:54.527Z,54.90
2019-02-25T00:22:22.437Z,55.40
2019-02-25T00:24:50.529Z,55.20
2019-02-25T00:27:18.875Z,54.80
2019-02-25T00:29:46.766Z,54.80
2019-02-25T00:32:14.513Z,54.60
2019-02-25T00:34:42.559Z,54.40
2019-02-25T00:37:10.107Z,54.40
2019-02-25T00:39:38.118Z,54.10
2019-02-25T00:42:24.036Z,54.00
2019-02-25T00:45:11.060Z,53.70
2019-02-25T00:47:38.699Z,53.90
2019-02-25T00:50:08.766Z,54.20
2019-02-25T00:52:36.139Z,53.70
2019-02-25T00:55:07.399Z,53.80
2019-02-25T00:57:35.125Z,53.20
2019-02-25T01:00:04.718Z,52.50
2019-02-25T01:02:32.652Z,52.10
2019-02-25T01:05:00.458Z,52.10
2019-02-25T01:07:28.257Z,52.30
2019-02-25T01:09:56.210Z,52.10
2019-02-25T01:12:23.640Z,52.00
2019-02-25T01:14:51.442Z,51.90
2019-02-25T01:17:19.201Z,52.00
2019-02-25T01:19:49.915Z,51.90
2019-02-25T01:22:17.705Z,51.90
2019-02-25T01:24:45.179Z,51.70
2019-02-25T01:27:12.963Z,51.70
2019-02-25T01:29:40.603Z,51.10
2019-02-25T01:32:08.017Z,51.00
2019-02-25T01:34:36.011Z,50.80
2019-02-25T01:37:03.724Z,51.20
2019-02-25T01:39:31.759Z,51.70
2019-02-25T01:41:59.826Z,52.40
2019-02-25T01:44:27.421Z,52.60
2019-02-25T01:46:55.456Z,53.00
2019-02-25T01:49:22.913Z,53.00
2019-02-25T01:51:50.751Z,53.50
2019-02-25T01:54:18.277Z,53.90
2019-02-25T01:56:48.447Z,54.30
2019-02-25T01:59:16.070Z,54.40
2019-02-25T02:01:43.926Z,54.10
2019-02-25T02:04:12.414Z,53.80
2019-02-25T02:06:40.055Z,53.50
2019-02-25T02:09:08.875Z,53.20
2019-02-25T02:11:36.452Z,53.10
2019-02-25T02:14:04.332Z,52.80
2019-02-25T02:16:32.789Z,52.50
2019-02-25T02:19:00.291Z,52.30
2019-02-25T02:21:28.306Z,51.70
2019-02-25T02:23:55.843Z,51.90
2019-02-25T02:26:23.765Z,51.30
2019-02-25T02:28:51.600Z,51.40
2019-02-25T02:31:20.069Z,51.40
2019-02-25T02:33:47.954Z,51.30
2019-02-25T02:36:15.769Z,51.50
2019-02-25T02:38:43.350Z,51.30
2019-02-25T02:41:11.289Z,51.30
2019-02-25T02:43:39.048Z,50.60
2019-02-25T02:46:25.210Z,50.40
2019-02-25T02:48:59.975Z,50.30
2019-02-25T02:51:27.576Z,50.20
2019-02-25T02:53:56.332Z,50.40
2019-02-25T02:56:24.088Z,50.20
2019-02-25T02:58:51.843Z,50.00
2019-02-25T03:01:19.998Z,50.10
2019-02-25T03:03:48.030Z,50.10
2019-02-25T03:06:15.971Z,50.00
2019-02-25T03:08:43.556Z,50.00
2019-02-25T03:11:10.994Z,50.10
2019-02-25T03:13:38.760Z,50.20
2019-02-25T03:16:06.202Z,50.30
2019-02-25T03:18:33.829Z,50.10
2019-02-25T03:21:01.367Z,50.10
2019-02-25T03:23:28.643Z,50.00
2019-02-25T03:25:56.704Z,49.80
2019-02-25T03:28:24.613Z,49.90
2019-02-25T03:30:52.764Z,49.90
2019-02-25T03:33:20.639Z,49.80
2019-02-25T03:35:48.275Z,49.60
2019-02-25T03:38:15.867Z,49.60
2019-02-25T03:40:44.212Z,49.70
2019-02-25T03:43:11.812Z,49.80
2019-02-25T03:45:40.677Z,49.80
2019-02-25T03:48:08.338Z,49.70
2019-02-25T03:50:36.162Z,49.70
2019-02-25T03:53:04.107Z,49.60
2019-02-25T03:55:31.991Z,49.40
2019-02-25T03:58:00.054Z,49.50
2019-02-25T04:00:27.394Z,49.70
2019-02-25T04:02:56.860Z,49.70
2019-02-25T04:05:24.647Z,49.60
2019-02-25T04:07:52.585Z,49.80
2019-02-25T04:10:20.011Z,50.10
2019-02-25T04:12:48.067Z,50.10
2019-02-25T04:15:19.161Z,50.20
2019-02-25T04:17:46.596Z,50.30
2019-02-25T04:20:14.726Z,50.80
2019-02-25T04:22:42.086Z,50.80
2019-02-25T04:25:10.056Z,51.10
2019-02-25T04:27:38.569Z,51.10
2019-02-25T04:30:08.285Z,51.00
2019-02-25T04:32:36.429Z,51.10
2019-02-25T04:35:05.088Z,51.00
2019-02-25T04:37:33.062Z,50.90
2019-02-25T04:40:01.113Z,50.80
2019-02-25T04:42:28.725Z,50.80
2019-02-25T04:44:56.681Z,50.70
2019-02-25T04:47:24.480Z,50.50
2019-02-25T04:49:52.020Z,50.60
2019-02-25T04:52:20.270Z,50.60
2019-02-25T04:54:48.231Z,50.60
2019-02-25T04:57:16.296Z,50.70
2019-02-25T04:59:44.047Z,50.70
2019-02-25T05:02:11.601Z,50.60
2019-02-25T05:04:39.222Z,50.60
2019-02-25T05:07:07.253Z,51.30
2019-02-25T05:09:35.143Z,50.80
2019-02-25T05:12:02.735Z,50.70
2019-02-25T05:14:30.838Z,50.60
2019-02-25T05:16:58.628Z,50.60
2019-02-25T05:19:26.662Z,50.50
2019-02-25T05:21:54.629Z,50.70
2019-02-25T05:24:22.128Z,50.80
2019-02-25T05:26:49.568Z,50.70
2019-02-25T05:29:17.546Z,51.00
2019-02-25T05:31:45.303Z,51.10
2019-02-25T05:34:12.778Z,50.90
2019-02-25T05:36:40.293Z,50.90
2019-02-25T05:39:07.990Z,50.80
2019-02-25T05:41:35.992Z,50.90
2019-02-25T05:44:03.828Z,51.20
2019-02-25T05:46:31.857Z,51.40
2019-02-25T05:48:59.480Z,51.20
2019-02-25T05:51:27.064Z,51.10
2019-02-25T05:53:54.851Z,51.20
2019-02-25T05:56:22.527Z,51.30
2019-02-25T05:58:50.437Z,51.40
2019-02-25T06:01:18.605Z,51.10
2019-02-25T06:03:46.879Z,51.30
2019-02-25T06:06:15.244Z,51.30
2019-02-25T06:08:43.150Z,51.60
2019-02-25T06:11:11.199Z,51.50
2019-02-25T06:13:39.794Z,51.90
2019-02-25T06:16:07.643Z,51.30
2019-02-25T06:18:35.547Z,51.20
2019-02-25T06:21:03.928Z,51.10
2019-02-25T06:23:31.722Z,51.00
2019-02-25T06:25:59.449Z,51.30
2019-02-25T06:28:27.915Z,51.40
2019-02-25T06:30:55.519Z,51.30
2019-02-25T06:33:23.604Z,51.60
2019-02-25T06:35:51.691Z,51.40
2019-02-25T06:38:19.679Z,51.10
2019-02-25T06:40:47.426Z,51.20
2019-02-25T06:43:15.494Z,51.10
2019-02-25T06:45:43.644Z,51.30
2019-02-25T06:48:11.787Z,51.50
2019-02-25T06:50:39.926Z,52.20
2019-02-25T06:53:08.524Z,51.90
2019-02-25T06:55:37.175Z,51.90
2019-02-25T06:58:05.766Z,52.00
2019-02-25T07:00:33.808Z,52.20
2019-02-25T07:03:01.695Z,52.40
2019-02-25T07:05:46.769Z,52.20
2019-02-25T07:08:37.363Z,52.20
2019-02-25T07:11:13.429Z,52.40
2019-02-25T07:14:09.741Z,52.40
2019-02-25T07:17:06.625Z,52.40
2019-02-25T07:19:47.586Z,52.70
2019-02-25T07:22:30.304Z,52.80
2019-02-25T07:25:29.672Z,53.10
2019-02-25T07:28:15.744Z,53.00
2019-02-25T07:31:04.860Z,53.00
2019-02-25T07:33:49.747Z,53.00
2019-02-25T07:36:36.199Z,52.90
2019-02-25T07:39:28.957Z,52.80
2019-02-25T07:42:16.402Z,52.30
2019-02-25T07:44:56.578Z,52.40
2019-02-25T07:47:47.695Z,52.50
2019-02-25T07:50:35.420Z,52.40
2019-02-25T07:53:26.417Z,52.70
2019-02-25T07:56:11.393Z,52.80
2019-02-25T07:58:59.930Z,53.20
2019-02-25T08:01:50.839Z,53.50
2019-02-25T08:04:49.907Z,53.10
2019-02-25T08:07:36.019Z,53.20
2019-02-25T08:10:33.342Z,53.20
2019-02-25T08:13:11.006Z,53.20
2019-02-25T08:15:58.623Z,53.20
2019-02-25T08:18:58.576Z,53.40
2019-02-25T08:21:35.506Z,54.20
2019-02-25T08:24:39.345Z,53.80
2019-02-25T08:27:42.421Z,54.30
2019-02-25T08:30:28.417Z,54.50
2019-02-25T08:33:14.398Z,54.70
2019-02-25T08:36:39.479Z,54.90
2019-02-25T08:39:22.250Z,55.20
2019-02-25T08:42:07.443Z,55.30
2019-02-25T08:44:47.717Z,55.50
2019-02-25T08:47:41.579Z,55.70
2019-02-25T08:50:11.025Z,56.30
2019-02-25T08:52:39.006Z,57.20
2019-02-25T08:55:07.929Z,56.30
2019-02-25T08:57:36.362Z,56.50
2019-02-25T09:00:05.754Z,56.20
2019-02-25T09:02:36.140Z,56.10
2019-02-25T09:05:05.454Z,56.10
2019-02-25T09:07:33.289Z,56.20
2019-02-25T09:10:01.308Z,56.30
2019-02-25T09:12:28.704Z,56.30
2019-02-25T09:14:56.390Z,56.40
2019-02-25T09:17:24.208Z,56.70
2019-02-25T09:19:51.914Z,58.20
2019-02-25T09:22:19.916Z,57.80
2019-02-25T09:24:48.831Z,57.80
2019-02-25T09:27:16.999Z,57.90
2019-02-25T09:29:45.084Z,57.70
2019-02-25T09:32:12.825Z,57.50
2019-02-25T09:34:40.484Z,57.20
2019-02-25T09:37:08.230Z,57.10
2019-02-25T09:39:36.142Z,56.90
2019-02-25T09:42:04.119Z,56.80
2019-02-25T09:44:31.746Z,56.70
2019-02-25T09:46:59.314Z,56.40
2019-02-25T09:49:27.459Z,56.30
2019-02-25T09:51:55.081Z,56.10
2019-02-25T09:54:22.612Z,56.00
2019-02-25T09:56:50.519Z,55.90
2019-02-25T09:59:18.576Z,55.70
2019-02-25T10:01:47.048Z,55.60
2019-02-25T10:04:14.699Z,55.30
2019-02-25T10:06:42.275Z,55.20
2019-02-25T10:09:10.434Z,55.20
2019-02-25T10:11:37.853Z,55.70
2019-02-25T10:14:08.461Z,55.20
2019-02-25T10:16:35.991Z,55.40
2019-02-25T10:19:03.672Z,55.40
2019-02-25T10:21:31.562Z,55.30
2019-02-25T10:23:59.498Z,55.30
2019-02-25T10:26:27.117Z,55.30
2019-02-25T10:28:54.875Z,55.30
2019-02-25T10:31:22.480Z,55.40
2019-02-25T10:33:50.830Z,55.40
2019-02-25T10:36:18.641Z,55.40
2019-02-25T10:38:46.802Z,55.40
2019-02-25T10:41:17.146Z,55.40
2019-02-25T10:43:45.005Z,55.50
2019-02-25T10:46:13.867Z,55.40
2019-02-25T10:48:42.255Z,55.40
2019-02-25T10:51:11.549Z,55.40
2019-02-25T10:53:39.431Z,55.40
2019-02-25T10:56:25.792Z,55.40
2019-02-25T10:58:53.289Z,55.40
2019-02-25T11:01:22.341Z,55.40
2019-02-25T11:03:52.584Z,55.40
2019-02-25T11:06:20.774Z,55.50
2019-02-25T11:08:54.259Z,55.50
2019-02-25T11:11:27.190Z,55.60
2019-02-25T11:13:54.868Z,55.60
2019-02-25T11:16:22.990Z,55.70
2019-02-25T11:18:52.765Z,55.80
2019-02-25T11:21:21.229Z,55.80
2019-02-25T11:23:51.154Z,55.80
2019-02-25T11:26:19.590Z,56.00
2019-02-25T11:28:47.679Z,55.90
2019-02-25T11:31:18.172Z,55.90
2019-02-25T11:33:45.244Z,56.00
2019-02-25T11:36:15.397Z,56.00
2019-02-25T11:38:43.422Z,56.40
2019-02-25T11:41:11.813Z,56.40
2019-02-25T11:43:40.071Z,56.90
2019-02-25T11:46:08.453Z,57.20
2019-02-25T11:48:42.036Z,57.50
2019-02-25T11:51:09.711Z,58.00
2019-02-25T11:53:40.956Z,58.40
2019-02-25T11:56:08.553Z,58.70
2019-02-25T11:58:36.588Z,58.90
2019-02-25T12:01:04.641Z,59.20
2019-02-25T12:03:32.704Z,59.30
2019-02-25T12:06:00.780Z,59.60
2019-02-25T12:08:28.595Z,59.60
2019-02-25T12:10:57.242Z,59.70
2019-02-25T12:13:25.322Z,59.70
2019-02-25T12:15:52.978Z,59.80
2019-02-25T12:18:20.820Z,60.00
2019-02-25T12:20:48.423Z,59.50
2019-02-25T12:23:16.323Z,60.00
2019-02-25T12:25:43.970Z,60.10
2019-02-25T12:28:11.638Z,60.20
2019-02-25T12:30:39.531Z,60.00
2019-02-25T12:33:07.133Z,60.00
2019-02-25T12:35:35.338Z,60.20
2019-02-25T12:38:03.267Z,60.30
2019-02-25T12:40:32.279Z,60.40
2019-02-25T12:43:00.237Z,60.40
2019-02-25T12:45:28.325Z,60.60
2019-02-25T12:47:56.424Z,60.60
2019-02-25T12:50:24.362Z,60.70
2019-02-25T12:52:52.103Z,60.80
2019-02-25T12:55:19.910Z,60.70
2019-02-25T12:57:47.375Z,60.60
2019-02-25T13:00:15.287Z,60.70
2019-02-25T13:02:44.338Z,60.30
2019-02-25T13:05:13.718Z,60.30
2019-02-25T13:07:42.071Z,60.50
2019-02-25T13:10:11.467Z,60.30
2019-02-25T13:12:40.116Z,60.20
2019-02-25T13:15:13.315Z,60.20
2019-02-25T13:17:44.690Z,60.30
2019-02-25T13:20:12.564Z,60.30
2019-02-25T13:22:40.632Z,60.40
2019-02-25T13:25:10.598Z,60.40
2019-02-25T13:27:43.481Z,60.20
2019-02-25T13:30:13.288Z,60.10
2019-02-25T13:32:41.235Z,60.00
2019-02-25T13:35:09.195Z,60.00
2019-02-25T13:37:37.288Z,59.90
2019-02-25T13:40:06.249Z,59.90
2019-02-25T13:42:35.241Z,59.80
2019-02-25T13:45:03.089Z,59.60
2019-02-25T13:47:31.193Z,59.50
2019-02-25T13:50:00.316Z,59.40
2019-02-25T13:52:28.661Z,59.30
2019-02-25T13:54:56.248Z,59.20
2019-02-25T13:57:24.288Z,59.10
2019-02-25T13:59:53.046Z,59.10
2019-02-25T14:02:20.671Z,59.00
2019-02-25T14:04:49.673Z,59.00
2019-02-25T14:07:18.175Z,58.90
2019-02-25T14:09:46.183Z,58.70
2019-02-25T14:12:15.072Z,58.80
2019-02-25T14:14:43.104Z,58.70
2019-02-25T14:17:10.815Z,58.90
2019-02-25T14:19:38.594Z,58.80
2019-02-25T14:22:08.180Z,58.70
2019-02-25T14:24:35.790Z,58.90
2019-02-25T14:27:03.511Z,58.80
2019-02-25T14:29:31.351Z,58.80
2019-02-25T14:31:59.219Z,58.70
2019-02-25T14:34:27.921Z,58.50
2019-02-25T14:36:57.228Z,58.50
2019-02-25T14:39:28.511Z,58.40
2019-02-25T14:41:58.951Z,58.30
2019-02-25T14:44:29.810Z,58.30
2019-02-25T14:46:56.607Z,58.10
2019-02-25T14:49:28.218Z,57.90
2019-02-25T14:51:57.533Z,57.80
2019-02-25T14:54:26.736Z,57.70
2019-02-25T14:56:59.889Z,57.70
2019-02-25T14:59:27.874Z,57.80
2019-02-25T15:01:56.986Z,57.90
2019-02-25T15:04:25.758Z,57.60
2019-02-25T15:06:53.290Z,57.90
2019-02-25T15:09:21.191Z,58.00
2019-02-25T15:11:51.259Z,57.90
2019-02-25T15:14:21.524Z,58.10
2019-02-25T15:16:52.909Z,58.20
2019-02-25T15:19:22.658Z,58.20
2019-02-25T15:21:52.094Z,58.20
2019-02-25T15:24:23.070Z,58.20
2019-02-25T15:27:01.635Z,58.30
2019-02-25T15:29:31.110Z,58.30
2019-02-25T15:32:06.204Z,58.50
2019-02-25T15:34:37.566Z,58.40
2019-02-25T15:37:10.096Z,58.60
2019-02-25T15:39:42.598Z,58.60
2019-02-25T15:42:11.212Z,58.80
2019-02-25T15:44:44.529Z,58.90
2019-02-25T15:47:16.928Z,58.90
2019-02-25T15:49:52.026Z,59.00
2019-02-25T15:52:21.051Z,59.10
2019-02-25T15:54:49.447Z,59.60
2019-02-25T15:57:17.634Z,59.70
2019-02-25T15:59:45.606Z,59.70
2019-02-25T16:02:15.002Z,59.70
2019-02-25T16:04:43.312Z,59.90
2019-02-25T16:07:11.483Z,60.00
2019-02-25T16:09:39.596Z,60.10
2019-02-25T16:12:07.853Z,60.30
2019-02-25T16:14:36.807Z,60.30
2019-02-25T16:17:06.030Z,60.50
2019-02-25T16:19:41.361Z,60.40
2019-02-25T16:22:07.375Z,60.50
2019-02-25T16:24:36.146Z,60.50
2019-02-25T16:27:04.592Z,61.30
2019-02-25T16:29:32.717Z,60.80
2019-02-25T16:32:01.943Z,60.60
2019-02-25T16:34:29.783Z,60.70
2019-02-25T16:36:58.235Z,60.90
2019-02-25T16:39:27.636Z,61.20
2019-02-25T16:41:55.501Z,61.60
2019-02-25T16:44:26.592Z,61.60
2019-02-25T16:46:54.192Z,61.80
2019-02-25T16:49:21.630Z,61.60
2019-02-25T16:51:51.459Z,61.70
2019-02-25T16:54:22.794Z,61.70
2019-02-25T16:56:52.964Z,61.60
2019-02-25T16:59:26.447Z,61.90
2019-02-25T17:02:00.021Z,62.20
2019-02-25T17:04:31.873Z,63.00
2019-02-25T17:07:00.525Z,62.50
2019-02-25T17:09:29.711Z,62.50
2019-02-25T17:11:58.149Z,62.60
2019-02-25T17:14:27.026Z,62.50
2019-02-25T17:16:56.539Z,62.60
2019-02-25T17:19:24.763Z,62.60
2019-02-25T17:21:52.606Z,62.70
2019-02-25T17:24:23.800Z,62.30
2019-02-25T17:26:50.075Z,62.30
2019-02-25T17:29:18.259Z,62.30
2019-02-25T17:31:45.917Z,62.20
2019-02-25T17:34:16.500Z,62.10
2019-02-25T17:36:45.592Z,62.10
2019-02-25T17:39:15.060Z,61.90
2019-02-25T17:41:44.785Z,62.00
2019-02-25T17:44:12.788Z,61.80
2019-02-25T17:46:41.790Z,61.90
2019-02-25T17:49:12.266Z,61.70
2019-02-25T17:51:40.689Z,61.70
2019-02-25T17:54:10.223Z,61.60
2019-02-25T17:56:40.504Z,61.70
2019-02-25T17:59:09.741Z,61.70
2019-02-25T18:01:37.668Z,61.80
2019-02-25T18:04:06.604Z,61.90
2019-02-25T18:06:36.306Z,61.90
2019-02-25T18:09:06.993Z,61.70
2019-02-25T18:11:34.649Z,62.00
2019-02-25T18:14:03.499Z,62.00
2019-02-25T18:16:33.201Z,62.20
2019-02-25T18:19:01.532Z,62.20
2019-02-25T18:21:29.276Z,62.50
2019-02-25T18:23:57.485Z,62.70
2019-02-25T18:26:25.297Z,63.10
2019-02-25T18:28:53.017Z,63.40
2019-02-25T18:31:21.387Z,63.80
2019-02-25T18:33:51.135Z,64.10
2019-02-25T18:36:21.563Z,64.10
2019-02-25T18:38:50.673Z,64.00
2019-02-25T18:41:21.098Z,64.10
2019-02-25T18:43:49.402Z,64.60
2019-02-25T18:46:19.154Z,64.50
2019-02-25T18:48:49.204Z,64.80
2019-02-25T18:51:18.295Z,65.30
2019-02-25T18:53:46.104Z,65.50
2019-02-25T18:56:14.631Z,65.80
2019-02-25T18:58:43.593Z,66.00
2019-02-25T19:01:13.390Z,66.00
2019-02-25T19:03:42.553Z,66.50
2019-02-25T19:06:10.850Z,66.40
2019-02-25T19:08:38.646Z,66.40
2019-02-25T19:11:06.817Z,67.20
2019-02-25T19:13:34.714Z,66.60
2019-02-25T19:16:03.106Z,66.80
2019-02-25T19:18:32.084Z,66.80
2019-02-25T19:21:04.237Z,67.70
2019-02-25T19:23:34.943Z,66.50
2019-02-25T19:26:01.273Z,66.40
2019-02-25T19:28:30.335Z,66.90
2019-02-25T19:30:57.973Z,66.30
2019-02-25T19:33:26.467Z,66.10
2019-02-25T19:35:58.107Z,66.30
2019-02-25T19:38:24.735Z,66.50
2019-02-25T19:40:53.567Z,66.60
2019-02-25T19:43:23.161Z,66.50
2019-02-25T19:45:52.143Z,66.50
2019-02-25T19:48:22.656Z,66.50
2019-02-25T19:50:51.559Z,66.70
2019-02-25T19:53:20.980Z,66.80
2019-02-25T19:55:51.076Z,66.90
2019-02-25T19:58:19.208Z,66.80
2019-02-25T20:00:50.637Z,66.50
2019-02-25T20:03:17.248Z,66.70
2019-02-25T20:05:46.335Z,66.60
2019-02-25T20:08:14.937Z,66.50
2019-02-25T20:10:44.885Z,66.30
2019-02-25T20:13:13.039Z,66.10
2019-02-25T20:15:42.388Z,66.20
2019-02-25T20:18:11.805Z,66.10
2019-02-25T20:20:41.818Z,66.10
2019-02-25T20:23:11.139Z,66.00
2019-02-25T20:25:42.434Z,66.00
2019-02-25T20:28:13.639Z,66.00
2019-02-25T20:30:43.359Z,66.00
2019-02-25T20:33:12.158Z,66.10
2019-02-25T20:35:40.234Z,66.30
2019-02-25T20:38:08.890Z,66.30
2019-02-25T20:40:36.951Z,66.30
2019-02-25T20:43:05.221Z,66.20
2019-02-25T20:45:35.075Z,66.40
2019-02-25T20:48:02.865Z,66.60
2019-02-25T20:50:30.822Z,66.80
2019-02-25T20:53:02.806Z,67.00
2019-02-25T20:55:29.357Z,66.90
2019-02-25T20:57:57.326Z,66.90
2019-02-25T21:00:25.198Z,66.90
2019-02-25T21:02:52.879Z,66.70
2019-02-25T21:05:22.811Z,67.00
2019-02-25T21:07:52.928Z,67.00
2019-02-25T21:10:22.535Z,67.40
2019-02-25T21:12:52.431Z,67.40
2019-02-25T21:15:20.421Z,67.60
2019-02-25T21:17:48.658Z,67.50
2019-02-25T21:20:16.216Z,67.60
2019-02-25T21:22:47.082Z,67.70
2019-02-25T21:25:14.854Z,67.60
2019-02-25T21:27:42.730Z,67.00
2019-02-25T21:30:13.069Z,67.10
2019-02-25T21:32:43.199Z,67.30
2019-02-25T21:35:12.047Z,67.20
2019-02-25T21:37:43.378Z,67.30
2019-02-25T21:40:12.299Z,67.50
2019-02-25T21:42:41.688Z,67.70
2019-02-25T21:45:10.839Z,67.70
2019-02-25T21:47:39.049Z,67.90
2019-02-25T21:50:11.456Z,67.80
2019-02-25T21:52:41.187Z,67.80
2019-02-25T21:55:09.755Z,67.70
2019-02-25T21:57:43.126Z,67.70
2019-02-25T22:00:13.456Z,67.80
2019-02-25T22:02:43.526Z,68.00
2019-02-25T22:05:12.259Z,67.90
2019-02-25T22:07:40.716Z,68.00
2019-02-25T22:10:09.360Z,67.90
2019-02-25T22:12:37.719Z,67.70
2019-02-25T22:15:08.033Z,68.00
2019-02-25T22:17:37.889Z,68.10
2019-02-25T22:20:07.497Z,67.80
2019-02-25T22:22:37.441Z,67.60
2019-02-25T22:25:08.429Z,68.30
2019-02-25T22:27:37.383Z,67.70
2019-02-25T22:30:07.412Z,67.60
2019-02-25T22:32:36.568Z,67.60
2019-02-25T22:35:07.585Z,67.80
2019-02-25T22:37:36.452Z,67.90
2019-02-25T22:40:05.937Z,68.10
2019-02-25T22:42:35.538Z,67.70
2019-02-25T22:45:04.429Z,68.40
2019-02-25T22:47:33.070Z,68.40
2019-02-25T22:50:01.109Z,68.40
2019-02-25T22:52:30.893Z,68.40
2019-02-25T22:54:58.317Z,68.10
2019-02-25T22:57:27.981Z,68.20
2019-02-25T22:59:56.087Z,68.10
2019-02-25T23:02:26.449Z,68.70
2019-02-25T23:04:54.178Z,68.80
2019-02-25T23:07:24.622Z,68.70
2019-02-25T23:09:54.315Z,68.90
2019-02-25T23:12:24.132Z,69.00
2019-02-25T23:14:53.824Z,69.80
2019-02-25T23:17:22.381Z,69.30
2019-02-25T23:19:50.556Z,69.10
2019-02-25T23:22:19.150Z,69.20
2019-02-25T23:24:46.663Z,69.50
2019-02-25T23:27:15.703Z,69.60
2019-02-25T23:29:43.047Z,69.50
2019-02-25T23:32:11.305Z,69.40
2019-02-25T23:34:42.605Z,69.50
2019-02-25T23:37:12.947Z,69.40
2019-02-25T23:39:38.427Z,69.20
2019-02-25T23:42:09.156Z,69.30
2019-02-25T23:44:38.212Z,69.10
2019-02-25T23:47:07.145Z,69.20
2019-02-25T23:49:36.532Z,69.00
2019-02-25T23:52:07.231Z,69.10
2019-02-25T23:54:35.051Z,69.20
2019-02-25T23:57:02.886Z,69.10
2019-02-25T23:59:30.949Z,69.20
